Terminal Aerodrome Forecast
Issued by NWS Goodland, KS

Home | Current Version | Previous Version | Text Only | Print | Product List | Glossary On
Versions: 1 2 3 4 5 6 7 8 9 10 11 12 13 14 15 16
000
FTUS43 KGLD 220222 AAA
TAFGLD
TAF AMD
KGLD 220222Z 2202/2224 VRB05KT P6SM SCT120
     FM220300 VRB15G25KT P6SM VCSH BKN050
     FM220400 34011KT P6SM SCT050 BKN120
     FM221200 33006KT P6SM SCT050 SCT200=

USA.gov is the U.S. government's official web portal to all federal, state and local government web resources and services.